createdAt,value
2023-02-13T00:01:25.482Z,102716.78
2023-02-13T00:05:29.917Z,102713.47
2023-02-13T00:09:32.957Z,102702.94
2023-02-13T00:13:36.562Z,102703.34
2023-02-13T00:17:39.689Z,102697.03
2023-02-13T00:21:44.057Z,102701.53
2023-02-13T00:25:47.079Z,102697.16
2023-02-13T00:29:50.110Z,102690.06
2023-02-13T00:33:53.212Z,102688.41
2023-02-13T00:37:57.659Z,102680.19
2023-02-13T00:42:00.748Z,102680.31
2023-02-13T00:46:04.225Z,102674.63
2023-02-13T00:50:08.225Z,102674.16
2023-02-13T00:54:14.268Z,102679.00
2023-02-13T00:58:18.769Z,102685.75
2023-02-13T01:02:21.826Z,102677.47
2023-02-13T01:06:24.905Z,102674.03
2023-02-13T01:10:29.928Z,102673.63
2023-02-13T01:14:33.004Z,102675.03
2023-02-13T01:18:36.052Z,102667.06
2023-02-13T01:22:39.308Z,102664.34
2023-02-13T01:26:43.892Z,102663.28
2023-02-13T01:30:46.964Z,102651.56
2023-02-13T01:34:50.036Z,102657.22
2023-02-13T01:38:55.358Z,102657.47
2023-02-13T01:42:59.791Z,102666.66
2023-02-13T01:47:02.883Z,102661.91
2023-02-13T01:51:09.667Z,102656.28
2023-02-13T01:55:15.061Z,102667.78
2023-02-13T01:59:24.408Z,102665.50
2023-02-13T02:03:32.427Z,102673.91
2023-02-13T02:07:42.826Z,102676.88
2023-02-13T02:11:52.595Z,102670.16
2023-02-13T02:15:57.751Z,102674.09
2023-02-13T02:20:13.056Z,102677.47
2023-02-13T02:24:39.018Z,102677.19
2023-02-13T02:29:12.738Z,102671.94
2023-02-13T02:33:25.154Z,102668.25
2023-02-13T02:37:48.625Z,102663.25
2023-02-13T02:42:05.412Z,102665.81
2023-02-13T02:46:16.049Z,102671.97
2023-02-13T02:50:34.110Z,102673.88
2023-02-13T02:55:02.756Z,102669.34
2023-02-13T02:59:42.027Z,102673.03
2023-02-13T03:04:04.192Z,102669.44
2023-02-13T03:08:08.869Z,102669.78
2023-02-13T03:12:32.467Z,102673.47
2023-02-13T03:16:52.984Z,102658.59
2023-02-13T03:21:24.976Z,102664.88
2023-02-13T03:25:36.695Z,102665.97
2023-02-13T03:30:04.742Z,102658.22
2023-02-13T03:34:11.897Z,102651.34
2023-02-13T03:38:21.378Z,102656.63
2023-02-13T03:42:32.586Z,102656.53
2023-02-13T03:46:39.473Z,102662.69
2023-02-13T03:50:45.321Z,102663.44
2023-02-13T03:55:11.551Z,102663.16
2023-02-13T03:59:23.434Z,102668.22
2023-02-13T04:03:30.580Z,102666.09
2023-02-13T04:07:33.713Z,102663.13
2023-02-13T04:11:41.822Z,102672.06
2023-02-13T04:15:51.781Z,102676.19
2023-02-13T04:19:55.641Z,102676.78
2023-02-13T04:23:58.689Z,102672.47
2023-02-13T04:28:01.816Z,102674.22
2023-02-13T04:32:06.415Z,102679.78
2023-02-13T04:36:09.796Z,102674.50
2023-02-13T04:40:13.359Z,102681.69
2023-02-13T04:44:16.375Z,102674.63
2023-02-13T04:48:20.759Z,102671.25
2023-02-13T04:52:23.775Z,102669.00
2023-02-13T04:56:26.900Z,102660.81
2023-02-13T05:00:30.308Z,102655.91
2023-02-13T05:04:34.785Z,102653.97
2023-02-13T05:08:37.839Z,102658.34
2023-02-13T05:12:40.883Z,102658.78
2023-02-13T05:16:44.206Z,102651.28
2023-02-13T05:21:08.627Z,102652.16
2023-02-13T05:25:11.722Z,102660.66
2023-02-13T05:29:20.782Z,102652.78
2023-02-13T05:33:23.832Z,102660.03
2023-02-13T05:37:28.187Z,102659.38
2023-02-13T05:41:31.397Z,102662.84
2023-02-13T05:45:34.499Z,102667.81
2023-02-13T05:49:37.515Z,102664.72
2023-02-13T05:53:41.906Z,102656.69
2023-02-13T05:57:44.964Z,102653.09
2023-02-13T06:01:48.209Z,102661.94
2023-02-13T06:05:51.313Z,102656.25
2023-02-13T06:09:55.659Z,102652.94
2023-02-13T06:13:58.803Z,102655.44
2023-02-13T06:18:02.217Z,102645.06
2023-02-13T06:22:05.247Z,102641.22
2023-02-13T06:26:10.695Z,102638.66
2023-02-13T06:30:14.751Z,102637.66
2023-02-13T06:34:17.741Z,102638.72
2023-02-13T06:38:21.614Z,102645.09
2023-02-13T06:42:26.032Z,102641.59
2023-02-13T06:46:29.112Z,102640.25
2023-02-13T06:50:32.201Z,102645.84
2023-02-13T06:54:46.686Z,102640.84
2023-02-13T06:58:52.210Z,102637.78
2023-02-13T07:02:55.442Z,102645.94
2023-02-13T07:06:58.837Z,102650.03
2023-02-13T07:11:01.917Z,102654.09
2023-02-13T07:15:08.159Z,102658.91
2023-02-13T07:19:11.325Z,102655.09
2023-02-13T07:23:14.341Z,102654.03
2023-02-13T07:27:17.458Z,102653.56
2023-02-13T07:31:21.926Z,102662.78
2023-02-13T07:35:25.031Z,102659.38
2023-02-13T07:39:28.068Z,102664.53
2023-02-13T07:43:31.332Z,102667.59
2023-02-13T07:47:36.080Z,102652.69
2023-02-13T07:51:39.142Z,102653.47
2023-02-13T07:55:42.130Z,102671.22
2023-02-13T07:59:45.279Z,102658.19
2023-02-13T08:03:52.500Z,102663.91
2023-02-13T08:07:55.805Z,102662.91
2023-02-13T08:11:59.386Z,102658.56
2023-02-13T08:16:02.363Z,102655.25
2023-02-13T08:20:08.987Z,102643.59
2023-02-13T08:24:12.337Z,102620.16
2023-02-13T08:28:15.410Z,102612.28
2023-02-13T08:32:18.684Z,102611.56
2023-02-13T08:36:23.132Z,102599.06
2023-02-13T08:40:26.174Z,102597.84
2023-02-13T08:44:29.210Z,102592.44
2023-02-13T08:48:32.561Z,102594.38
2023-02-13T08:52:37.122Z,102582.38
2023-02-13T08:56:40.138Z,102587.13
2023-02-13T09:00:43.165Z,102594.84
2023-02-13T09:04:46.172Z,102587.84
2023-02-13T09:08:50.560Z,102586.22
2023-02-13T09:12:54.077Z,102585.44
2023-02-13T09:16:57.169Z,102589.81
2023-02-13T09:21:01.753Z,102595.06
2023-02-13T09:25:07.021Z,102604.56
2023-02-13T09:29:10.077Z,102601.94
2023-02-13T09:33:13.151Z,102598.25
2023-02-13T09:37:16.216Z,102595.22
2023-02-13T09:41:24.411Z,102607.19
2023-02-13T09:45:27.468Z,102609.97
2023-02-13T09:49:33.396Z,102611.34
2023-02-13T09:53:38.387Z,102618.56
2023-02-13T09:57:47.790Z,102610.44
2023-02-13T10:01:54.787Z,102618.16
2023-02-13T10:06:04.702Z,102610.94
2023-02-13T10:10:20.161Z,102615.84
2023-02-13T10:14:28.334Z,102617.13
2023-02-13T10:18:44.337Z,102615.81
2023-02-13T10:22:52.741Z,102620.88
2023-02-13T10:26:57.885Z,102619.22
2023-02-13T10:31:06.693Z,102625.41
2023-02-13T10:35:20.895Z,102611.06
2023-02-13T10:39:25.688Z,102624.56
2023-02-13T10:43:31.449Z,102616.66
2023-02-13T10:48:00.628Z,102615.69
2023-02-13T10:52:15.477Z,102619.88
2023-02-13T10:56:33.119Z,102614.00
2023-02-13T11:00:43.266Z,102608.75
2023-02-13T11:04:48.346Z,102608.03
2023-02-13T11:08:51.446Z,102602.03
2023-02-13T11:12:55.482Z,102599.78
2023-02-13T11:17:01.068Z,102590.88
2023-02-13T11:21:09.582Z,102593.22
2023-02-13T11:25:24.318Z,102584.09
2023-02-13T11:29:29.717Z,102573.34
2023-02-13T11:33:32.727Z,102568.78
2023-02-13T11:37:37.080Z,102571.72
2023-02-13T11:41:43.061Z,102561.72
2023-02-13T11:45:46.157Z,102553.69
2023-02-13T11:49:49.187Z,102561.31
2023-02-13T11:53:54.599Z,102545.88
2023-02-13T11:57:59.100Z,102552.41
2023-02-13T12:02:15.654Z,102541.41
2023-02-13T12:06:20.928Z,102537.28
2023-02-13T12:10:27.678Z,102531.53
2023-02-13T12:14:38.151Z,102535.91
2023-02-13T12:18:45.329Z,102533.31
2023-02-13T12:23:03.726Z,102535.84
2023-02-13T12:27:17.105Z,102531.00
2023-02-13T12:31:42.190Z,102525.88
2023-02-13T12:35:53.328Z,102520.06
2023-02-13T12:40:13.481Z,102527.53
2023-02-13T12:44:37.841Z,102521.00
2023-02-13T12:48:49.589Z,102518.66
2023-02-13T12:53:14.068Z,102518.09
2023-02-13T12:57:28.853Z,102504.69
2023-02-13T13:01:54.990Z,102502.09
2023-02-13T13:06:12.046Z,102499.94
2023-02-13T13:10:38.946Z,102496.00
2023-02-13T13:14:50.744Z,102493.66
2023-02-13T13:19:09.505Z,102486.00
2023-02-13T13:23:17.135Z,102481.13
2023-02-13T13:27:24.982Z,102490.38
2023-02-13T13:31:29.412Z,102479.19
2023-02-13T13:35:35.781Z,102477.28
2023-02-13T13:39:49.139Z,102470.06
2023-02-13T13:44:09.133Z,102461.25
2023-02-13T13:48:47.981Z,102458.75
2023-02-13T13:53:10.588Z,102460.22
2023-02-13T13:57:14.289Z,102459.53
2023-02-13T14:01:25.559Z,102459.94
2023-02-13T14:05:31.847Z,102451.91
2023-02-13T14:09:41.583Z,102449.31
2023-02-13T14:13:46.028Z,102453.16
2023-02-13T14:17:53.519Z,102442.13
2023-02-13T14:22:16.996Z,102441.75
2023-02-13T14:26:30.861Z,102446.56
2023-02-13T14:30:36.778Z,102438.75
2023-02-13T14:34:41.162Z,102440.41
2023-02-13T14:38:44.489Z,102439.34
2023-02-13T14:42:55.072Z,102434.06
2023-02-13T14:47:00.877Z,102424.84
2023-02-13T14:51:05.396Z,102424.16
2023-02-13T14:55:15.828Z,102422.88
2023-02-13T14:59:23.967Z,102417.44
2023-02-13T15:03:30.769Z,102416.06
2023-02-13T15:07:37.938Z,102420.03
2023-02-13T15:11:43.212Z,102417.03
2023-02-13T15:15:53.375Z,102413.81
2023-02-13T15:20:00.290Z,102415.47
2023-02-13T15:24:03.801Z,102414.88
2023-02-13T15:28:09.532Z,102405.00
2023-02-13T15:32:21.261Z,102403.81
2023-02-13T15:36:26.517Z,102400.34
2023-02-13T15:40:32.070Z,102401.25
2023-02-13T15:44:38.137Z,102400.78
2023-02-13T15:48:44.484Z,102395.19
2023-02-13T15:52:48.625Z,102400.38
2023-02-13T15:56:53.227Z,102396.34
2023-02-13T16:00:57.335Z,102398.19
2023-02-13T16:05:03.408Z,102399.97
2023-02-13T16:09:07.074Z,102394.38
2023-02-13T16:13:18.789Z,102391.84
2023-02-13T16:17:29.106Z,102391.25
2023-02-13T16:21:35.970Z,102390.34
2023-02-13T16:25:40.775Z,102383.19
2023-02-13T16:29:55.896Z,102377.94
2023-02-13T16:33:59.003Z,102375.56
2023-02-13T16:38:04.201Z,102372.09
2023-02-13T16:42:19.159Z,102376.84
2023-02-13T16:46:29.855Z,102380.16
2023-02-13T16:50:33.093Z,102369.28
2023-02-13T16:54:40.645Z,102370.34
2023-02-13T16:58:43.811Z,102370.72
2023-02-13T17:02:47.679Z,102372.09
2023-02-13T17:06:55.562Z,102383.38
2023-02-13T17:11:08.720Z,102383.31
2023-02-13T17:15:13.545Z,102384.16
2023-02-13T17:19:16.632Z,102400.84
2023-02-13T17:23:23.285Z,102406.53
2023-02-13T17:27:27.805Z,102405.94
2023-02-13T17:31:30.985Z,102412.88
2023-02-13T17:35:35.234Z,102421.00
2023-02-13T17:39:39.153Z,102430.56
2023-02-13T17:43:43.594Z,102432.22
2023-02-13T17:47:46.742Z,102448.44
2023-02-13T17:51:49.792Z,102451.81
2023-02-13T17:55:53.285Z,102449.31
2023-02-13T17:59:59.254Z,102462.00
2023-02-13T18:04:02.366Z,102445.75
2023-02-13T18:08:06.055Z,102455.38
2023-02-13T18:12:13.245Z,102450.69
2023-02-13T18:16:18.041Z,102450.53
2023-02-13T18:20:22.397Z,102450.56
2023-02-13T18:24:30.341Z,102447.69
2023-02-13T18:28:33.775Z,102447.97
2023-02-13T18:32:38.190Z,102455.00
2023-02-13T18:36:41.244Z,102463.06
2023-02-13T18:40:44.317Z,102448.00
2023-02-13T18:44:47.428Z,102446.44
2023-02-13T18:48:51.977Z,102452.00
2023-02-13T18:52:55.023Z,102450.66
2023-02-13T18:56:58.121Z,102437.75
2023-02-13T19:01:06.897Z,102450.88
2023-02-13T19:05:11.786Z,102452.88
2023-02-13T19:09:14.843Z,102445.69
2023-02-13T19:13:17.840Z,102449.69
2023-02-13T19:17:21.130Z,102456.78
2023-02-13T19:21:27.322Z,102460.72
2023-02-13T19:25:30.402Z,102465.25
2023-02-13T19:29:33.447Z,102469.84
2023-02-13T19:33:37.482Z,102469.28
2023-02-13T19:37:44.290Z,102458.16
2023-02-13T19:41:47.538Z,102461.19
2023-02-13T19:45:50.787Z,102459.66
2023-02-13T19:49:53.832Z,102463.34
2023-02-13T19:53:59.238Z,102464.56
2023-02-13T19:58:02.320Z,102474.63
2023-02-13T20:02:05.382Z,102461.38
2023-02-13T20:06:11.248Z,102455.81
2023-02-13T20:10:15.657Z,102464.75
2023-02-13T20:14:18.695Z,102465.28
2023-02-13T20:18:22.051Z,102466.28
2023-02-13T20:22:25.101Z,102465.28
2023-02-13T20:26:29.787Z,102471.97
2023-02-13T20:30:33.010Z,102464.63
2023-02-13T20:34:44.331Z,102470.81
2023-02-13T20:39:01.163Z,102473.25
2023-02-13T20:43:05.608Z,102473.09
2023-02-13T20:47:08.692Z,102477.25
2023-02-13T20:51:14.496Z,102469.19
2023-02-13T20:55:17.862Z,102478.53
2023-02-13T20:59:22.271Z,102468.88
2023-02-13T21:03:25.629Z,102467.19
2023-02-13T21:07:31.650Z,102466.94
2023-02-13T21:11:35.433Z,102465.94
2023-02-13T21:15:40.164Z,102469.84
2023-02-13T21:19:43.176Z,102472.88
2023-02-13T21:23:46.258Z,102472.09
2023-02-13T21:27:49.571Z,102466.13
2023-02-13T21:31:53.993Z,102472.03
2023-02-13T21:36:04.694Z,102466.13
2023-02-13T21:40:09.132Z,102462.69
2023-02-13T21:44:14.230Z,102474.03
2023-02-13T21:48:18.984Z,102460.59
2023-02-13T21:52:22.018Z,102470.16
2023-02-13T21:56:26.820Z,102455.56
2023-02-13T22:00:29.908Z,102453.19
2023-02-13T22:04:34.340Z,102457.78
2023-02-13T22:08:37.372Z,102464.75
2023-02-13T22:12:40.388Z,102458.97
2023-02-13T22:16:44.059Z,102463.88
2023-02-13T22:20:48.591Z,102470.63
2023-02-13T22:24:51.614Z,102467.34
2023-02-13T22:28:56.557Z,102472.25
2023-02-13T22:32:59.696Z,102479.59
2023-02-13T22:37:04.317Z,102478.03
2023-02-13T22:41:08.587Z,102483.44
2023-02-13T22:45:11.606Z,102474.47
2023-02-13T22:49:14.615Z,102479.91
2023-02-13T22:53:18.991Z,102480.53
2023-02-13T22:57:22.017Z,102487.41
2023-02-13T23:01:26.698Z,102490.00
2023-02-13T23:05:29.712Z,102489.66
2023-02-13T23:09:34.093Z,102480.47
2023-02-13T23:13:37.151Z,102476.75
2023-02-13T23:17:57.824Z,102477.78
2023-02-13T23:22:01.163Z,102475.31
2023-02-13T23:26:07.032Z,102482.28
2023-02-13T23:30:11.949Z,102477.13
2023-02-13T23:34:15.010Z,102487.28
2023-02-13T23:38:18.026Z,102476.94
2023-02-13T23:42:22.497Z,102481.34
2023-02-13T23:46:25.579Z,102486.38
2023-02-13T23:50:28.689Z,102486.63
2023-02-13T23:54:31.767Z,102483.59
2023-02-13T23:58:36.274Z,102477.19
